sensor_id;sensor_type;location;lat;lon;timestamp;temperature;humidity
8008;DHT22;4049;49.468;11.200;2023-04-03T00:01:34;3.40;99.90
8008;DHT22;4049;49.468;11.200;2023-04-03T00:04:03;3.40;99.90
8008;DHT22;4049;49.468;11.200;2023-04-03T00:06:30;3.40;99.90
8008;DHT22;4049;49.468;11.200;2023-04-03T00:08:57;3.40;99.90
8008;DHT22;4049;49.468;11.200;2023-04-03T00:11:25;3.30;99.90
8008;DHT22;4049;49.468;11.200;2023-04-03T00:13:52;3.30;99.90
8008;DHT22;4049;49.468;11.200;2023-04-03T00:16:19;3.30;99.90
8008;DHT22;4049;49.468;11.200;2023-04-03T00:18:46;3.30;99.90
8008;DHT22;4049;49.468;11.200;2023-04-03T00:21:13;3.20;99.90
8008;DHT22;4049;49.468;11.200;2023-04-03T00:23:41;3.20;99.90
8008;DHT22;4049;49.468;11.200;2023-04-03T00:26:07;3.20;99.90
8008;DHT22;4049;49.468;11.200;2023-04-03T00:28:36;3.20;99.90
8008;DHT22;4049;49.468;11.200;2023-04-03T00:31:03;3.10;99.90
8008;DHT22;4049;49.468;11.200;2023-04-03T00:33:30;3.10;99.90
8008;DHT22;4049;49.468;11.200;2023-04-03T00:35:57;3.10;99.90
8008;DHT22;4049;49.468;11.200;2023-04-03T00:38:23;3.10;99.90
8008;DHT22;4049;49.468;11.200;2023-04-03T00:40:50;3.10;99.90
8008;DHT22;4049;49.468;11.200;2023-04-03T00:43:19;3.10;99.90
8008;DHT22;4049;49.468;11.200;2023-04-03T00:45:50;3.00;99.90
8008;DHT22;4049;49.468;11.200;2023-04-03T00:48:19;3.00;99.90
8008;DHT22;4049;49.468;11.200;2023-04-03T00:50:47;3.00;99.90
8008;DHT22;4049;49.468;11.200;2023-04-03T00:53:17;3.00;99.90
8008;DHT22;4049;49.468;11.200;2023-04-03T00:55:46;3.00;99.90
8008;DHT22;4049;49.468;11.200;2023-04-03T00:58:14;3.00;99.90
8008;DHT22;4049;49.468;11.200;2023-04-03T01:00:46;2.90;99.90
8008;DHT22;4049;49.468;11.200;2023-04-03T01:03:15;2.90;99.90
8008;DHT22;4049;49.468;11.200;2023-04-03T01:05:42;2.90;99.90
8008;DHT22;4049;49.468;11.200;2023-04-03T01:08:09;2.90;99.90
8008;DHT22;4049;49.468;11.200;2023-04-03T01:10:36;2.90;99.90
8008;DHT22;4049;49.468;11.200;2023-04-03T01:13:18;2.90;99.90
8008;DHT22;4049;49.468;11.200;2023-04-03T01:15:45;2.80;99.90
8008;DHT22;4049;49.468;11.200;2023-04-03T01:18:12;2.80;99.90
8008;DHT22;4049;49.468;11.200;2023-04-03T01:23:53;2.80;99.90
8008;DHT22;4049;49.468;11.200;2023-04-03T01:26:22;2.70;99.90
8008;DHT22;4049;49.468;11.200;2023-04-03T01:28:53;2.70;99.90
8008;DHT22;4049;49.468;11.200;2023-04-03T01:31:25;2.70;99.90
8008;DHT22;4049;49.468;11.200;2023-04-03T01:33:54;2.60;99.90
8008;DHT22;4049;49.468;11.200;2023-04-03T01:36:22;2.60;99.90
8008;DHT22;4049;49.468;11.200;2023-04-03T01:38:50;2.60;99.90
8008;DHT22;4049;49.468;11.200;2023-04-03T01:41:17;2.60;99.90
8008;DHT22;4049;49.468;11.200;2023-04-03T01:43:46;2.60;99.90
8008;DHT22;4049;49.468;11.200;2023-04-03T01:46:14;2.50;99.90
8008;DHT22;4049;49.468;11.200;2023-04-03T01:48:41;2.50;99.90
8008;DHT22;4049;49.468;11.200;2023-04-03T01:51:09;2.50;99.90
8008;DHT22;4049;49.468;11.200;2023-04-03T01:53:36;2.40;99.90
8008;DHT22;4049;49.468;11.200;2023-04-03T01:56:03;2.40;99.90
8008;DHT22;4049;49.468;11.200;2023-04-03T01:58:30;2.40;99.90
8008;DHT22;4049;49.468;11.200;2023-04-03T02:00:57;2.30;99.90
8008;DHT22;4049;49.468;11.200;2023-04-03T02:03:24;2.30;99.90
8008;DHT22;4049;49.468;11.200;2023-04-03T02:05:50;2.30;99.90
8008;DHT22;4049;49.468;11.200;2023-04-03T02:08:19;2.30;99.90
8008;DHT22;4049;49.468;11.200;2023-04-03T02:10:47;2.20;99.90
8008;DHT22;4049;49.468;11.200;2023-04-03T02:13:14;2.20;99.90
8008;DHT22;4049;49.468;11.200;2023-04-03T02:15:41;2.20;99.90
8008;DHT22;4049;49.468;11.200;2023-04-03T02:18:08;2.20;99.90
8008;DHT22;4049;49.468;11.200;2023-04-03T02:20:35;2.10;99.90
8008;DHT22;4049;49.468;11.200;2023-04-03T02:23:03;2.10;99.90
8008;DHT22;4049;49.468;11.200;2023-04-03T02:25:32;2.00;99.90
8008;DHT22;4049;49.468;11.200;2023-04-03T02:27:59;2.00;99.90
8008;DHT22;4049;49.468;11.200;2023-04-03T02:30:26;2.00;99.90
8008;DHT22;4049;49.468;11.200;2023-04-03T02:32:53;1.90;99.90
8008;DHT22;4049;49.468;11.200;2023-04-03T02:35:20;1.90;99.90
8008;DHT22;4049;49.468;11.200;2023-04-03T02:37:46;1.80;99.90
8008;DHT22;4049;49.468;11.200;2023-04-03T02:40:13;1.80;99.90
8008;DHT22;4049;49.468;11.200;2023-04-03T02:42:41;1.70;99.90
8008;DHT22;4049;49.468;11.200;2023-04-03T02:45:09;1.70;99.90
8008;DHT22;4049;49.468;11.200;2023-04-03T02:47:36;1.50;99.90
8008;DHT22;4049;49.468;11.200;2023-04-03T02:50:03;1.50;99.90
8008;DHT22;4049;49.468;11.200;2023-04-03T02:52:30;1.50;99.90
8008;DHT22;4049;49.468;11.200;2023-04-03T02:54:57;1.50;99.90
8008;DHT22;4049;49.468;11.200;2023-04-03T02:57:24;1.50;99.90
8008;DHT22;4049;49.468;11.200;2023-04-03T02:59:52;1.50;99.90
8008;DHT22;4049;49.468;11.200;2023-04-03T03:02:19;1.50;99.90
8008;DHT22;4049;49.468;11.200;2023-04-03T03:04:45;1.40;99.90
8008;DHT22;4049;49.468;11.200;2023-04-03T03:07:12;1.30;99.90
8008;DHT22;4049;49.468;11.200;2023-04-03T03:09:39;1.30;99.90
8008;DHT22;4049;49.468;11.200;2023-04-03T03:12:06;1.30;99.90
8008;DHT22;4049;49.468;11.200;2023-04-03T03:14:32;1.30;99.90
8008;DHT22;4049;49.468;11.200;2023-04-03T03:17:01;1.20;99.90
8008;DHT22;4049;49.468;11.200;2023-04-03T03:19:28;1.20;99.90
8008;DHT22;4049;49.468;11.200;2023-04-03T03:21:54;1.20;99.90
8008;DHT22;4049;49.468;11.200;2023-04-03T03:24:22;1.10;99.90
8008;DHT22;4049;49.468;11.200;2023-04-03T03:26:49;1.10;99.90
8008;DHT22;4049;49.468;11.200;2023-04-03T03:29:15;1.10;99.90
8008;DHT22;4049;49.468;11.200;2023-04-03T03:31:42;1.10;99.90
8008;DHT22;4049;49.468;11.200;2023-04-03T03:34:10;1.10;99.90
8008;DHT22;4049;49.468;11.200;2023-04-03T03:36:38;1.10;99.90
8008;DHT22;4049;49.468;11.200;2023-04-03T03:39:05;1.10;99.90
8008;DHT22;4049;49.468;11.200;2023-04-03T03:41:31;1.10;99.90
8008;DHT22;4049;49.468;11.200;2023-04-03T03:43:58;1.10;99.90
8008;DHT22;4049;49.468;11.200;2023-04-03T03:46:25;1.00;99.90
8008;DHT22;4049;49.468;11.200;2023-04-03T03:48:52;1.00;99.90
8008;DHT22;4049;49.468;11.200;2023-04-03T03:51:20;1.00;99.90
8008;DHT22;4049;49.468;11.200;2023-04-03T03:53:47;1.00;99.90
8008;DHT22;4049;49.468;11.200;2023-04-03T03:56:13;1.00;99.90
8008;DHT22;4049;49.468;11.200;2023-04-03T03:58:40;1.00;99.90
8008;DHT22;4049;49.468;11.200;2023-04-03T04:01:07;1.00;99.90
8008;DHT22;4049;49.468;11.200;2023-04-03T04:03:34;0.90;99.90
8008;DHT22;4049;49.468;11.200;2023-04-03T04:06:01;0.90;99.90
8008;DHT22;4049;49.468;11.200;2023-04-03T04:08:29;0.90;99.90
8008;DHT22;4049;49.468;11.200;2023-04-03T04:10:56;0.90;99.90
8008;DHT22;4049;49.468;11.200;2023-04-03T04:13:24;0.90;99.90
8008;DHT22;4049;49.468;11.200;2023-04-03T04:15:51;0.90;99.90
8008;DHT22;4049;49.468;11.200;2023-04-03T04:18:18;0.80;99.90
8008;DHT22;4049;49.468;11.200;2023-04-03T04:20:45;0.80;99.90
8008;DHT22;4049;49.468;11.200;2023-04-03T04:23:12;0.80;99.90
8008;DHT22;4049;49.468;11.200;2023-04-03T04:25:40;0.80;99.90
8008;DHT22;4049;49.468;11.200;2023-04-03T04:28:07;0.80;99.90
8008;DHT22;4049;49.468;11.200;2023-04-03T04:30:34;0.80;99.90
8008;DHT22;4049;49.468;11.200;2023-04-03T04:33:00;0.70;99.90
8008;DHT22;4049;49.468;11.200;2023-04-03T04:35:27;0.70;99.90
8008;DHT22;4049;49.468;11.200;2023-04-03T04:37:54;0.70;99.90
8008;DHT22;4049;49.468;11.200;2023-04-03T04:40:22;0.60;99.90
8008;DHT22;4049;49.468;11.200;2023-04-03T04:42:50;0.60;99.90
8008;DHT22;4049;49.468;11.200;2023-04-03T04:45:17;0.60;99.90
8008;DHT22;4049;49.468;11.200;2023-04-03T04:47:44;0.50;99.90
8008;DHT22;4049;49.468;11.200;2023-04-03T04:50:11;0.50;99.90
8008;DHT22;4049;49.468;11.200;2023-04-03T04:52:38;0.50;99.90
8008;DHT22;4049;49.468;11.200;2023-04-03T04:55:05;0.40;99.90
8008;DHT22;4049;49.468;11.200;2023-04-03T04:57:32;0.50;99.90
8008;DHT22;4049;49.468;11.200;2023-04-03T05:00:02;0.40;99.90
8008;DHT22;4049;49.468;11.200;2023-04-03T05:02:29;0.50;99.90
8008;DHT22;4049;49.468;11.200;2023-04-03T05:04:56;0.40;99.90
8008;DHT22;4049;49.468;11.200;2023-04-03T05:07:23;0.40;99.90
8008;DHT22;4049;49.468;11.200;2023-04-03T05:09:49;0.40;99.90
8008;DHT22;4049;49.468;11.200;2023-04-03T05:12:16;0.40;99.90
8008;DHT22;4049;49.468;11.200;2023-04-03T05:14:43;0.40;99.90
8008;DHT22;4049;49.468;11.200;2023-04-03T05:17:12;0.40;99.90
8008;DHT22;4049;49.468;11.200;2023-04-03T05:19:38;0.40;99.90
8008;DHT22;4049;49.468;11.200;2023-04-03T05:22:05;0.50;99.90
8008;DHT22;4049;49.468;11.200;2023-04-03T05:24:32;0.50;99.90
8008;DHT22;4049;49.468;11.200;2023-04-03T05:26:59;0.50;99.90
8008;DHT22;4049;49.468;11.200;2023-04-03T05:29:26;0.50;99.90
8008;DHT22;4049;49.468;11.200;2023-04-03T05:31:53;0.50;99.90
8008;DHT22;4049;49.468;11.200;2023-04-03T05:34:21;0.60;99.90
8008;DHT22;4049;49.468;11.200;2023-04-03T05:36:48;0.60;99.90
8008;DHT22;4049;49.468;11.200;2023-04-03T05:39:15;0.70;99.90
8008;DHT22;4049;49.468;11.200;2023-04-03T05:41:41;0.70;99.90
8008;DHT22;4049;49.468;11.200;2023-04-03T05:44:08;0.80;99.90
8008;DHT22;4049;49.468;11.200;2023-04-03T05:46:35;0.80;99.90
8008;DHT22;4049;49.468;11.200;2023-04-03T05:49:02;0.90;99.90
8008;DHT22;4049;49.468;11.200;2023-04-03T05:51:34;0.90;99.90
8008;DHT22;4049;49.468;11.200;2023-04-03T05:54:06;1.00;99.90
8008;DHT22;4049;49.468;11.200;2023-04-03T05:56:35;1.10;99.90
8008;DHT22;4049;49.468;11.200;2023-04-03T05:59:02;1.10;99.90
8008;DHT22;4049;49.468;11.200;2023-04-03T06:01:29;1.20;99.90
8008;DHT22;4049;49.468;11.200;2023-04-03T06:03:56;1.20;99.90
8008;DHT22;4049;49.468;11.200;2023-04-03T06:06:24;1.30;99.90
8008;DHT22;4049;49.468;11.200;2023-04-03T06:08:52;1.40;99.90
8008;DHT22;4049;49.468;11.200;2023-04-03T06:11:19;1.40;99.90
8008;DHT22;4049;49.468;11.200;2023-04-03T06:13:46;1.50;99.90
8008;DHT22;4049;49.468;11.200;2023-04-03T06:16:15;1.60;99.90
8008;DHT22;4049;49.468;11.200;2023-04-03T06:18:43;1.60;99.90
8008;DHT22;4049;49.468;11.200;2023-04-03T06:21:10;1.70;99.90
8008;DHT22;4049;49.468;11.200;2023-04-03T06:23:37;1.70;99.90
8008;DHT22;4049;49.468;11.200;2023-04-03T06:26:05;1.80;99.90
8008;DHT22;4049;49.468;11.200;2023-04-03T06:28:32;1.80;99.90
8008;DHT22;4049;49.468;11.200;2023-04-03T06:30:59;1.90;99.90
8008;DHT22;4049;49.468;11.200;2023-04-03T06:33:26;2.00;99.90
8008;DHT22;4049;49.468;11.200;2023-04-03T06:35:57;2.00;99.90
8008;DHT22;4049;49.468;11.200;2023-04-03T06:38:24;2.10;99.90
8008;DHT22;4049;49.468;11.200;2023-04-03T06:40:51;2.20;99.90
8008;DHT22;4049;49.468;11.200;2023-04-03T06:43:20;2.30;99.90
8008;DHT22;4049;49.468;11.200;2023-04-03T06:45:47;2.30;99.90
8008;DHT22;4049;49.468;11.200;2023-04-03T06:48:14;2.40;99.90
8008;DHT22;4049;49.468;11.200;2023-04-03T06:50:41;2.40;99.90
8008;DHT22;4049;49.468;11.200;2023-04-03T06:53:08;2.50;99.90
8008;DHT22;4049;49.468;11.200;2023-04-03T06:55:35;2.60;99.90
8008;DHT22;4049;49.468;11.200;2023-04-03T06:58:02;2.60;99.90
8008;DHT22;4049;49.468;11.200;2023-04-03T07:00:31;2.70;99.90
8008;DHT22;4049;49.468;11.200;2023-04-03T07:02:58;2.80;99.90
8008;DHT22;4049;49.468;11.200;2023-04-03T07:05:25;2.80;99.90
8008;DHT22;4049;49.468;11.200;2023-04-03T07:07:52;2.90;99.90
8008;DHT22;4049;49.468;11.200;2023-04-03T07:10:19;3.00;99.90
8008;DHT22;4049;49.468;11.200;2023-04-03T07:12:46;3.00;99.90
8008;DHT22;4049;49.468;11.200;2023-04-03T07:15:14;3.10;99.90
8008;DHT22;4049;49.468;11.200;2023-04-03T07:17:42;3.10;99.90
8008;DHT22;4049;49.468;11.200;2023-04-03T07:20:09;3.20;99.90
8008;DHT22;4049;49.468;11.200;2023-04-03T07:22:37;3.20;99.90
8008;DHT22;4049;49.468;11.200;2023-04-03T07:25:04;3.30;99.90
8008;DHT22;4049;49.468;11.200;2023-04-03T07:27:33;3.40;99.90
8008;DHT22;4049;49.468;11.200;2023-04-03T07:30:00;3.40;99.90
8008;DHT22;4049;49.468;11.200;2023-04-03T07:32:26;3.40;99.90
8008;DHT22;4049;49.468;11.200;2023-04-03T07:34:55;3.50;99.90
8008;DHT22;4049;49.468;11.200;2023-04-03T07:37:21;3.60;99.90
8008;DHT22;4049;49.468;11.200;2023-04-03T07:39:48;3.70;99.90
8008;DHT22;4049;49.468;11.200;2023-04-03T07:42:16;3.70;99.90
8008;DHT22;4049;49.468;11.200;2023-04-03T07:44:43;3.80;99.90
8008;DHT22;4049;49.468;11.200;2023-04-03T07:47:10;3.90;99.90
8008;DHT22;4049;49.468;11.200;2023-04-03T07:49:38;3.90;99.90
8008;DHT22;4049;49.468;11.200;2023-04-03T07:52:07;3.90;99.90
8008;DHT22;4049;49.468;11.200;2023-04-03T07:54:35;4.00;99.90
8008;DHT22;4049;49.468;11.200;2023-04-03T07:57:02;4.10;99.90
8008;DHT22;4049;49.468;11.200;2023-04-03T07:59:29;4.20;99.90
8008;DHT22;4049;49.468;11.200;2023-04-03T08:01:56;4.20;99.90
8008;DHT22;4049;49.468;11.200;2023-04-03T08:04:23;4.30;99.90
8008;DHT22;4049;49.468;11.200;2023-04-03T08:06:50;4.30;99.90
8008;DHT22;4049;49.468;11.200;2023-04-03T08:09:18;4.50;99.90
8008;DHT22;4049;49.468;11.200;2023-04-03T08:11:45;4.50;99.90
8008;DHT22;4049;49.468;11.200;2023-04-03T08:14:13;4.70;99.90
8008;DHT22;4049;49.468;11.200;2023-04-03T08:16:43;4.70;99.90
8008;DHT22;4049;49.468;11.200;2023-04-03T08:19:10;4.80;99.90
8008;DHT22;4049;49.468;11.200;2023-04-03T08:21:39;4.90;99.90
8008;DHT22;4049;49.468;11.200;2023-04-03T08:24:08;5.00;99.90
8008;DHT22;4049;49.468;11.200;2023-04-03T08:26:37;5.00;99.90
8008;DHT22;4049;49.468;11.200;2023-04-03T08:29:04;5.00;99.90
8008;DHT22;4049;49.468;11.200;2023-04-03T08:31:31;5.00;99.90
8008;DHT22;4049;49.468;11.200;2023-04-03T08:33:57;5.00;99.90
8008;DHT22;4049;49.468;11.200;2023-04-03T08:36:26;5.00;99.90
8008;DHT22;4049;49.468;11.200;2023-04-03T08:38:53;5.00;99.90
8008;DHT22;4049;49.468;11.200;2023-04-03T08:41:29;5.10;99.90
8008;DHT22;4049;49.468;11.200;2023-04-03T08:44:04;5.20;99.90
8008;DHT22;4049;49.468;11.200;2023-04-03T08:46:43;5.20;99.90
8008;DHT22;4049;49.468;11.200;2023-04-03T08:49:18;5.30;99.90
8008;DHT22;4049;49.468;11.200;2023-04-03T08:51:49;5.40;99.90
8008;DHT22;4049;49.468;11.200;2023-04-03T08:54:28;5.40;99.90
8008;DHT22;4049;49.468;11.200;2023-04-03T08:56:57;5.30;99.90
8008;DHT22;4049;49.468;11.200;2023-04-03T08:59:31;5.30;99.90
8008;DHT22;4049;49.468;11.200;2023-04-03T09:02:02;5.30;99.90
8008;DHT22;4049;49.468;11.200;2023-04-03T09:04:32;5.30;99.90
8008;DHT22;4049;49.468;11.200;2023-04-03T09:07:04;5.40;99.90
8008;DHT22;4049;49.468;11.200;2023-04-03T09:09:35;5.40;99.90
8008;DHT22;4049;49.468;11.200;2023-04-03T09:12:13;5.40;99.90
8008;DHT22;4049;49.468;11.200;2023-04-03T09:14:46;5.40;99.90
8008;DHT22;4049;49.468;11.200;2023-04-03T09:17:21;5.50;99.90
8008;DHT22;4049;49.468;11.200;2023-04-03T09:19:53;5.50;99.90
8008;DHT22;4049;49.468;11.200;2023-04-03T09:22:24;5.60;99.90
8008;DHT22;4049;49.468;11.200;2023-04-03T09:24:57;5.60;99.90
8008;DHT22;4049;49.468;11.200;2023-04-03T09:27:25;5.60;99.90
8008;DHT22;4049;49.468;11.200;2023-04-03T09:29:55;5.60;99.90
8008;DHT22;4049;49.468;11.200;2023-04-03T09:32:26;5.60;99.90
8008;DHT22;4049;49.468;11.200;2023-04-03T09:34:54;5.70;99.90
8008;DHT22;4049;49.468;11.200;2023-04-03T09:37:41;5.70;99.90
8008;DHT22;4049;49.468;11.200;2023-04-03T09:40:31;5.80;99.90
8008;DHT22;4049;49.468;11.200;2023-04-03T09:43:02;5.80;99.90
8008;DHT22;4049;49.468;11.200;2023-04-03T09:45:32;5.80;99.90
8008;DHT22;4049;49.468;11.200;2023-04-03T09:48:08;5.80;99.90
8008;DHT22;4049;49.468;11.200;2023-04-03T09:50:36;5.90;99.90
8008;DHT22;4049;49.468;11.200;2023-04-03T09:53:07;5.90;99.90
8008;DHT22;4049;49.468;11.200;2023-04-03T09:55:42;6.00;99.90
8008;DHT22;4049;49.468;11.200;2023-04-03T09:58:25;6.20;99.90
8008;DHT22;4049;49.468;11.200;2023-04-03T10:00:57;6.30;99.90
8008;DHT22;4049;49.468;11.200;2023-04-03T10:03:27;6.30;99.90
8008;DHT22;4049;49.468;11.200;2023-04-03T10:05:54;6.40;99.90
8008;DHT22;4049;49.468;11.200;2023-04-03T10:08:25;6.40;99.90
8008;DHT22;4049;49.468;11.200;2023-04-03T10:11:08;6.60;99.90
8008;DHT22;4049;49.468;11.200;2023-04-03T10:13:36;6.70;99.90
8008;DHT22;4049;49.468;11.200;2023-04-03T10:16:18;6.90;99.90
8008;DHT22;4049;49.468;11.200;2023-04-03T10:18:52;7.00;99.90
8008;DHT22;4049;49.468;11.200;2023-04-03T10:21:32;7.00;99.90
8008;DHT22;4049;49.468;11.200;2023-04-03T10:24:09;7.10;97.70
8008;DHT22;4049;49.468;11.200;2023-04-03T10:26:45;7.10;99.90
8008;DHT22;4049;49.468;11.200;2023-04-03T10:29:26;7.10;99.90
8008;DHT22;4049;49.468;11.200;2023-04-03T10:32:01;7.10;99.90
8008;DHT22;4049;49.468;11.200;2023-04-03T10:34:32;7.10;99.90
8008;DHT22;4049;49.468;11.200;2023-04-03T10:37:05;7.10;99.90
8008;DHT22;4049;49.468;11.200;2023-04-03T10:39:41;7.10;99.90
8008;DHT22;4049;49.468;11.200;2023-04-03T10:42:15;7.20;99.90
8008;DHT22;4049;49.468;11.200;2023-04-03T10:44:59;7.30;99.90
8008;DHT22;4049;49.468;11.200;2023-04-03T10:47:36;7.40;99.90
8008;DHT22;4049;49.468;11.200;2023-04-03T10:50:22;7.50;95.50
8008;DHT22;4049;49.468;11.200;2023-04-03T10:52:57;7.40;91.40
8008;DHT22;4049;49.468;11.200;2023-04-03T10:55:34;7.40;91.30
8008;DHT22;4049;49.468;11.200;2023-04-03T10:58:03;7.40;91.90
8008;DHT22;4049;49.468;11.200;2023-04-03T11:00:36;7.50;90.40
8008;DHT22;4049;49.468;11.200;2023-04-03T11:03:11;7.70;88.80
8008;DHT22;4049;49.468;11.200;2023-04-03T11:05:42;8.00;93.30
8008;DHT22;4049;49.468;11.200;2023-04-03T11:08:28;8.30;91.90
8008;DHT22;4049;49.468;11.200;2023-04-03T11:11:00;8.70;87.00
8008;DHT22;4049;49.468;11.200;2023-04-03T11:13:34;9.20;86.80
8008;DHT22;4049;49.468;11.200;2023-04-03T11:16:02;9.60;82.50
8008;DHT22;4049;49.468;11.200;2023-04-03T11:18:37;9.90;77.50
8008;DHT22;4049;49.468;11.200;2023-04-03T11:21:09;10.20;72.60
8008;DHT22;4049;49.468;11.200;2023-04-03T11:23:40;10.50;64.80
8008;DHT22;4049;49.468;11.200;2023-04-03T11:26:10;10.40;60.00
8008;DHT22;4049;49.468;11.200;2023-04-03T11:28:37;10.30;62.80
8008;DHT22;4049;49.468;11.200;2023-04-03T11:31:15;10.40;59.50
8008;DHT22;4049;49.468;11.200;2023-04-03T11:33:52;10.50;57.30
8008;DHT22;4049;49.468;11.200;2023-04-03T11:36:24;10.80;54.50
8008;DHT22;4049;49.468;11.200;2023-04-03T11:38:54;11.10;53.90
8008;DHT22;4049;49.468;11.200;2023-04-03T11:41:27;11.50;56.50
8008;DHT22;4049;49.468;11.200;2023-04-03T11:43:59;11.70;54.40
8008;DHT22;4049;49.468;11.200;2023-04-03T11:46:49;11.60;53.40
8008;DHT22;4049;49.468;11.200;2023-04-03T11:55:45;11.30;49.80
8008;DHT22;4049;49.468;11.200;2023-04-03T11:58:19;11.10;50.90
8008;DHT22;4049;49.468;11.200;2023-04-03T12:00:58;11.20;52.00
8008;DHT22;4049;49.468;11.200;2023-04-03T12:12:56;11.20;49.40
8008;DHT22;4049;49.468;11.200;2023-04-03T12:15:52;11.50;49.80
8008;DHT22;4049;49.468;11.200;2023-04-03T12:18:41;11.80;47.10
8008;DHT22;4049;49.468;11.200;2023-04-03T12:21:08;12.00;47.70
8008;DHT22;4049;49.468;11.200;2023-04-03T12:23:36;12.30;49.00
8008;DHT22;4049;49.468;11.200;2023-04-03T12:26:24;12.50;43.60
8008;DHT22;4049;49.468;11.200;2023-04-03T12:28:55;12.80;44.90
8008;DHT22;4049;49.468;11.200;2023-04-03T12:31:25;12.90;44.40
8008;DHT22;4049;49.468;11.200;2023-04-03T12:34:12;13.10;45.40
8008;DHT22;4049;49.468;11.200;2023-04-03T12:36:50;13.20;44.10
8008;DHT22;4049;49.468;11.200;2023-04-03T12:39:33;13.20;42.40
8008;DHT22;4049;49.468;11.200;2023-04-03T12:42:11;13.30;41.50
8008;DHT22;4049;49.468;11.200;2023-04-03T12:44:49;13.40;41.80
8008;DHT22;4049;49.468;11.200;2023-04-03T12:47:26;13.50;41.30
8008;DHT22;4049;49.468;11.200;2023-04-03T12:49:54;13.50;41.00
8008;DHT22;4049;49.468;11.200;2023-04-03T12:52:33;13.30;41.80
8008;DHT22;4049;49.468;11.200;2023-04-03T12:55:02;13.20;40.50
8008;DHT22;4049;49.468;11.200;2023-04-03T12:57:31;12.90;40.90
8008;DHT22;4049;49.468;11.200;2023-04-03T13:00:00;12.50;42.70
8008;DHT22;4049;49.468;11.200;2023-04-03T13:02:44;12.10;42.20
8008;DHT22;4049;49.468;11.200;2023-04-03T13:05:16;11.60;42.70
8008;DHT22;4049;49.468;11.200;2023-04-03T13:07:45;11.60;43.90
8008;DHT22;4049;49.468;11.200;2023-04-03T13:10:17;11.80;43.10
8008;DHT22;4049;49.468;11.200;2023-04-03T13:12:47;12.00;43.90
8008;DHT22;4049;49.468;11.200;2023-04-03T13:15:18;12.00;40.00
8008;DHT22;4049;49.468;11.200;2023-04-03T13:17:45;12.10;39.00
8008;DHT22;4049;49.468;11.200;2023-04-03T13:20:19;12.20;41.20
8008;DHT22;4049;49.468;11.200;2023-04-03T13:22:53;12.20;42.00
8008;DHT22;4049;49.468;11.200;2023-04-03T13:25:23;12.10;43.50
8008;DHT22;4049;49.468;11.200;2023-04-03T13:27:51;11.80;43.60
8008;DHT22;4049;49.468;11.200;2023-04-03T13:30:25;11.50;44.30
8008;DHT22;4049;49.468;11.200;2023-04-03T13:32:53;11.60;44.00
8008;DHT22;4049;49.468;11.200;2023-04-03T13:35:36;11.80;45.00
8008;DHT22;4049;49.468;11.200;2023-04-03T13:38:07;11.90;45.80
8008;DHT22;4049;49.468;11.200;2023-04-03T13:40:48;12.10;44.40
8008;DHT22;4049;49.468;11.200;2023-04-03T13:43:19;12.40;45.50
8008;DHT22;4049;49.468;11.200;2023-04-03T13:46:20;12.50;42.90
8008;DHT22;4049;49.468;11.200;2023-04-03T13:48:49;12.20;43.60
8008;DHT22;4049;49.468;11.200;2023-04-03T13:51:22;12.40;42.90
8008;DHT22;4049;49.468;11.200;2023-04-03T13:53:52;12.60;43.80
8008;DHT22;4049;49.468;11.200;2023-04-03T13:56:29;12.80;44.00
8008;DHT22;4049;49.468;11.200;2023-04-03T13:59:01;12.60;44.30
8008;DHT22;4049;49.468;11.200;2023-04-03T14:01:40;12.10;43.40
8008;DHT22;4049;49.468;11.200;2023-04-03T14:04:15;11.70;43.20
8008;DHT22;4049;49.468;11.200;2023-04-03T14:06:42;11.30;44.00
8008;DHT22;4049;49.468;11.200;2023-04-03T14:09:09;10.90;44.40
8008;DHT22;4049;49.468;11.200;2023-04-03T14:11:36;11.20;46.00
8008;DHT22;4049;49.468;11.200;2023-04-03T14:14:09;11.70;45.60
8008;DHT22;4049;49.468;11.200;2023-04-03T14:16:41;12.00;44.90
8008;DHT22;4049;49.468;11.200;2023-04-03T14:19:23;12.40;44.50
8008;DHT22;4049;49.468;11.200;2023-04-03T14:21:51;12.70;43.60
8008;DHT22;4049;49.468;11.200;2023-04-03T14:24:19;12.60;43.80
8008;DHT22;4049;49.468;11.200;2023-04-03T14:26:46;12.20;42.80
8008;DHT22;4049;49.468;11.200;2023-04-03T14:29:14;11.70;42.80
8008;DHT22;4049;49.468;11.200;2023-04-03T14:31:45;11.30;43.70
8008;DHT22;4049;49.468;11.200;2023-04-03T14:34:12;11.10;44.70
8008;DHT22;4049;49.468;11.200;2023-04-03T14:36:41;10.80;45.20
8008;DHT22;4049;49.468;11.200;2023-04-03T14:39:11;10.70;45.50
8008;DHT22;4049;49.468;11.200;2023-04-03T14:41:43;10.60;46.00
8008;DHT22;4049;49.468;11.200;2023-04-03T14:44:10;10.40;47.00
8008;DHT22;4049;49.468;11.200;2023-04-03T14:46:39;10.40;47.30
8008;DHT22;4049;49.468;11.200;2023-04-03T14:49:13;10.20;47.00
8008;DHT22;4049;49.468;11.200;2023-04-03T14:51:40;10.10;45.10
8008;DHT22;4049;49.468;11.200;2023-04-03T14:54:13;9.80;44.70
8008;DHT22;4049;49.468;11.200;2023-04-03T14:56:40;9.60;44.80
8008;DHT22;4049;49.468;11.200;2023-04-03T14:59:09;9.40;44.10
8008;DHT22;4049;49.468;11.200;2023-04-03T15:01:37;9.30;46.10
8008;DHT22;4049;49.468;11.200;2023-04-03T15:04:10;9.10;46.40
8008;DHT22;4049;49.468;11.200;2023-04-03T15:06:38;9.10;46.50
8008;DHT22;4049;49.468;11.200;2023-04-03T15:09:05;9.20;47.70
8008;DHT22;4049;49.468;11.200;2023-04-03T15:11:32;9.40;47.90
8008;DHT22;4049;49.468;11.200;2023-04-03T15:13:59;9.40;47.50
8008;DHT22;4049;49.468;11.200;2023-04-03T15:16:26;9.40;48.40
8008;DHT22;4049;49.468;11.200;2023-04-03T15:18:53;9.30;48.10
8008;DHT22;4049;49.468;11.200;2023-04-03T15:21:21;9.20;48.80
8008;DHT22;4049;49.468;11.200;2023-04-03T15:23:48;9.00;48.20
8008;DHT22;4049;49.468;11.200;2023-04-03T15:26:15;8.90;48.30
8008;DHT22;4049;49.468;11.200;2023-04-03T15:28:42;8.80;49.00
8008;DHT22;4049;49.468;11.200;2023-04-03T15:31:09;8.70;48.90
8008;DHT22;4049;49.468;11.200;2023-04-03T15:33:36;8.60;48.60
8008;DHT22;4049;49.468;11.200;2023-04-03T15:36:04;8.60;50.00
8008;DHT22;4049;49.468;11.200;2023-04-03T15:38:32;8.60;50.00
8008;DHT22;4049;49.468;11.200;2023-04-03T15:40:59;8.60;50.10
8008;DHT22;4049;49.468;11.200;2023-04-03T15:43:26;8.60;49.60
8008;DHT22;4049;49.468;11.200;2023-04-03T15:45:57;8.50;48.20
8008;DHT22;4049;49.468;11.200;2023-04-03T15:48:25;8.40;48.60
8008;DHT22;4049;49.468;11.200;2023-04-03T15:50:53;8.40;50.10
8008;DHT22;4049;49.468;11.200;2023-04-03T15:53:19;8.40;50.30
8008;DHT22;4049;49.468;11.200;2023-04-03T15:55:48;8.30;50.20
8008;DHT22;4049;49.468;11.200;2023-04-03T15:58:15;8.30;50.20
8008;DHT22;4049;49.468;11.200;2023-04-03T16:00:42;8.30;50.20
8008;DHT22;4049;49.468;11.200;2023-04-03T16:03:12;8.20;50.00
8008;DHT22;4049;49.468;11.200;2023-04-03T16:05:41;8.20;51.00
8008;DHT22;4049;49.468;11.200;2023-04-03T16:08:08;8.20;50.60
8008;DHT22;4049;49.468;11.200;2023-04-03T16:10:35;8.20;51.60
8008;DHT22;4049;49.468;11.200;2023-04-03T16:13:04;8.20;50.20
8008;DHT22;4049;49.468;11.200;2023-04-03T16:15:31;8.20;51.00
8008;DHT22;4049;49.468;11.200;2023-04-03T16:18:01;8.10;50.10
8008;DHT22;4049;49.468;11.200;2023-04-03T16:20:28;8.00;51.20
8008;DHT22;4049;49.468;11.200;2023-04-03T16:22:56;7.90;50.40
8008;DHT22;4049;49.468;11.200;2023-04-03T16:25:23;7.80;50.50
8008;DHT22;4049;49.468;11.200;2023-04-03T16:27:50;7.70;51.50
8008;DHT22;4049;49.468;11.200;2023-04-03T16:30:19;7.60;51.80
8008;DHT22;4049;49.468;11.200;2023-04-03T16:32:45;7.60;51.50
8008;DHT22;4049;49.468;11.200;2023-04-03T16:35:12;7.50;52.40